Terminal Aerodrome Forecast
Issued by NWS Bismarck, ND

Home | Current Version | Previous Version | Graphics & Text | Print | Product List | Glossary On
Versions: 1 2 3 4 5 6 7 8 9 10 11 12 13 14 15 16 17
000
FTUS43 KBIS 251517 AAB
TAFBIS
TAF AMD
KBIS 251517Z 2515/2612 23011KT P6SM SCT200
     FM251800 26018G26KT P6SM SCT250
     FM260200 27010KT P6SM SCT110=

USA.gov is the U.S. government's official web portal to all federal, state and local government web resources and services.